createdAt,value
2023-02-03T00:02:34.537Z,0.20
2023-02-03T00:05:23.395Z,0.40
2023-02-03T00:08:12.648Z,0.40
2023-02-03T00:11:02.692Z,0.50
2023-02-03T00:13:51.379Z,0.30
2023-02-03T00:16:39.989Z,0.40
2023-02-03T00:19:28.661Z,0.50
2023-02-03T00:22:17.325Z,0.25
2023-02-03T00:25:06.594Z,0.35
2023-02-03T00:27:56.903Z,0.52
2023-02-03T00:30:45.643Z,0.32
2023-02-03T00:33:34.776Z,0.30
2023-02-03T00:36:23.482Z,0.40
2023-02-03T00:39:12.216Z,0.28
2023-02-03T00:42:00.861Z,0.20
2023-02-03T00:44:51.061Z,0.50
2023-02-03T00:47:39.735Z,0.30
2023-02-03T00:50:28.775Z,0.22
2023-02-03T00:53:17.639Z,0.25
2023-02-03T00:56:12.516Z,0.15
2023-02-03T00:59:01.246Z,0.10
2023-02-03T01:01:51.745Z,0.10
2023-02-03T01:04:40.458Z,0.30
2023-02-03T01:07:29.267Z,0.10
2023-02-03T01:10:18.434Z,0.20
2023-02-03T01:13:07.234Z,0.50
2023-02-03T01:15:55.929Z,0.20
2023-02-03T01:18:46.429Z,0.13
2023-02-03T01:21:36.317Z,0.30
2023-02-03T01:24:25.044Z,0.20
2023-02-03T01:27:13.760Z,0.20
2023-02-03T01:30:02.557Z,0.10
2023-02-03T01:32:51.261Z,0.30
2023-02-03T01:35:41.406Z,0.15
2023-02-03T01:38:30.116Z,0.10
2023-02-03T01:41:20.578Z,0.13
2023-02-03T01:44:37.910Z,0.40
2023-02-03T01:47:30.972Z,0.30
2023-02-03T01:50:22.419Z,0.20
2023-02-03T01:53:13.408Z,0.10
2023-02-03T01:56:04.863Z,0.15
2023-02-03T01:58:53.862Z,0.28
2023-02-03T02:01:42.555Z,0.10
2023-02-03T02:04:36.472Z,0.20
2023-02-03T02:07:26.122Z,0.03
2023-02-03T02:10:16.351Z,0.20
2023-02-03T02:13:06.090Z,0.20
2023-02-03T02:15:59.776Z,0.15
2023-02-03T02:18:58.200Z,0.13
2023-02-03T02:21:58.449Z,0.10
2023-02-03T02:25:04.610Z,0.10
2023-02-03T02:28:11.990Z,0.10
2023-02-03T02:31:34.040Z,0.10
2023-02-03T02:34:35.437Z,0.10
2023-02-03T02:37:32.220Z,0.10
2023-02-03T02:40:25.999Z,0.10
2023-02-03T02:43:18.661Z,0.10
2023-02-03T02:46:12.003Z,0.10
2023-02-03T02:49:03.623Z,0.10
2023-02-03T02:51:54.427Z,0.05
2023-02-03T02:54:46.435Z,0.10
2023-02-03T02:57:36.967Z,0.10
2023-02-03T03:00:26.077Z,0.10
2023-02-03T03:03:16.062Z,0.00
2023-02-03T03:06:08.104Z,0.10
2023-02-03T03:09:00.567Z,0.10
2023-02-03T03:11:52.092Z,0.10
2023-02-03T03:14:46.626Z,0.10
2023-02-03T03:17:44.230Z,0.10
2023-02-03T03:20:33.941Z,0.20
2023-02-03T03:23:28.316Z,0.10
2023-02-03T03:26:21.714Z,0.00
2023-02-03T03:29:15.137Z,0.20
2023-02-03T03:32:04.355Z,0.08
2023-02-03T03:34:53.528Z,0.40
2023-02-03T03:37:45.466Z,0.10
2023-02-03T03:40:37.071Z,0.15
2023-02-03T03:43:30.382Z,0.15
2023-02-03T03:46:21.894Z,0.17
2023-02-03T03:49:12.441Z,0.00
2023-02-03T03:52:03.728Z,0.10
2023-02-03T03:54:53.283Z,0.20
2023-02-03T03:57:45.142Z,0.10
2023-02-03T04:00:37.143Z,0.10
2023-02-03T04:03:27.334Z,0.10
2023-02-03T04:06:16.437Z,0.17
2023-02-03T04:09:05.570Z,0.10
2023-02-03T04:12:03.488Z,0.10
2023-02-03T04:14:52.397Z,0.10
2023-02-03T04:17:42.545Z,0.10
2023-02-03T04:20:32.454Z,0.00
2023-02-03T04:23:21.235Z,0.30
2023-02-03T04:26:10.013Z,0.00
2023-02-03T04:28:58.722Z,0.10
2023-02-03T04:31:47.343Z,0.00
2023-02-03T04:34:37.422Z,0.00
2023-02-03T04:37:26.755Z,0.08
2023-02-03T04:40:17.999Z,0.17
2023-02-03T04:43:09.349Z,0.20
2023-02-03T04:45:58.705Z,0.00
2023-02-03T04:48:47.279Z,0.00
2023-02-03T04:51:37.277Z,0.10
2023-02-03T04:54:25.858Z,0.10
2023-02-03T04:57:14.451Z,0.10
2023-02-03T05:00:03.115Z,0.10
2023-02-03T05:02:51.798Z,0.10
2023-02-03T05:05:40.542Z,0.20
2023-02-03T05:08:31.300Z,0.10
2023-02-03T05:11:20.096Z,0.03
2023-02-03T05:14:08.796Z,0.05
2023-02-03T05:16:57.604Z,0.00
2023-02-03T05:19:46.399Z,0.50
2023-02-03T05:22:35.683Z,0.32
2023-02-03T05:25:26.076Z,0.30
2023-02-03T05:28:14.853Z,0.70
2023-02-03T05:31:04.047Z,0.30
2023-02-03T05:33:52.645Z,0.40
2023-02-03T05:36:43.936Z,0.40
2023-02-03T05:39:32.605Z,0.43
2023-02-03T05:42:21.655Z,0.30
2023-02-03T05:45:11.562Z,0.30
2023-02-03T05:48:02.670Z,0.45
2023-02-03T05:50:51.567Z,0.30
2023-02-03T05:53:40.224Z,0.30
2023-02-03T05:56:28.886Z,0.40
2023-02-03T05:59:19.002Z,0.17
2023-02-03T06:02:07.652Z,0.30
2023-02-03T06:04:56.271Z,0.43
2023-02-03T06:07:44.876Z,0.10
2023-02-03T06:10:33.451Z,0.20
2023-02-03T06:13:22.052Z,0.93
2023-02-03T06:16:12.204Z,0.60
2023-02-03T06:19:02.037Z,1.02
2023-02-03T06:21:50.858Z,0.63
2023-02-03T06:24:39.474Z,0.80
2023-02-03T06:27:28.440Z,0.70
2023-02-03T06:30:17.502Z,0.98
2023-02-03T06:33:07.671Z,0.40
2023-02-03T06:35:57.176Z,0.50
2023-02-03T06:38:45.843Z,0.55
2023-02-03T06:41:34.540Z,1.45
2023-02-03T06:44:23.620Z,0.88
2023-02-03T06:47:12.230Z,1.20
2023-02-03T06:50:02.237Z,1.35
2023-02-03T06:52:51.564Z,1.13
2023-02-03T06:55:40.227Z,1.33
2023-02-03T06:58:28.912Z,1.38
2023-02-03T07:01:17.799Z,1.33
2023-02-03T07:04:06.953Z,0.98
2023-02-03T07:06:57.470Z,0.55
2023-02-03T07:09:46.059Z,0.82
2023-02-03T07:12:36.515Z,0.68
2023-02-03T07:15:26.003Z,0.80
2023-02-03T07:18:25.709Z,0.80
2023-02-03T07:21:24.158Z,0.82
2023-02-03T07:24:14.605Z,1.05
2023-02-03T07:27:04.575Z,0.70
2023-02-03T07:29:53.480Z,0.60
2023-02-03T07:32:42.116Z,0.47
2023-02-03T07:35:30.763Z,0.60
2023-02-03T07:38:19.430Z,0.60
2023-02-03T07:41:09.510Z,0.68
2023-02-03T07:43:58.367Z,0.68
2023-02-03T07:46:47.060Z,0.40
2023-02-03T07:49:35.809Z,0.30
2023-02-03T07:52:24.421Z,0.40
2023-02-03T07:55:13.105Z,0.47
2023-02-03T07:58:03.458Z,0.50
2023-02-03T08:00:52.208Z,0.28
2023-02-03T08:03:40.985Z,0.40
2023-02-03T08:06:30.752Z,0.40
2023-02-03T08:09:19.596Z,0.28
2023-02-03T08:12:08.535Z,0.20
2023-02-03T08:14:58.571Z,0.40
2023-02-03T08:17:47.278Z,0.30
2023-02-03T08:20:35.961Z,0.30
2023-02-03T08:23:24.620Z,0.35
2023-02-03T08:26:13.286Z,0.50
2023-02-03T08:29:01.955Z,0.32
2023-02-03T08:31:52.086Z,0.20
2023-02-03T08:34:40.819Z,0.40
2023-02-03T08:37:31.773Z,0.20
2023-02-03T08:40:20.527Z,0.32
2023-02-03T08:43:09.106Z,0.25
2023-02-03T08:45:57.820Z,0.20
2023-02-03T08:48:47.933Z,0.40
2023-02-03T08:51:36.518Z,0.40
2023-02-03T08:54:26.183Z,0.30
2023-02-03T08:57:15.099Z,0.30
2023-02-03T09:00:04.158Z,0.20
2023-02-03T09:02:52.818Z,0.35
2023-02-03T09:05:42.780Z,0.28
2023-02-03T09:08:31.574Z,0.30
2023-02-03T09:11:20.341Z,0.20
2023-02-03T09:14:08.950Z,0.20
2023-02-03T09:16:57.945Z,0.20
2023-02-03T09:19:46.608Z,0.15
2023-02-03T09:22:36.689Z,0.30
2023-02-03T09:25:25.359Z,0.43
2023-02-03T09:28:14.096Z,0.45
2023-02-03T09:31:02.929Z,0.20
2023-02-03T09:33:51.559Z,0.40
2023-02-03T09:36:41.936Z,0.15
2023-02-03T09:39:33.112Z,0.10
2023-02-03T09:42:31.215Z,0.30
2023-02-03T09:45:23.091Z,0.17
2023-02-03T09:48:16.475Z,0.30
2023-02-03T09:51:05.274Z,0.20
2023-02-03T09:53:58.467Z,0.63
2023-02-03T09:56:52.626Z,0.30
2023-02-03T09:59:41.254Z,0.50
2023-02-03T10:02:45.055Z,0.43
2023-02-03T10:05:47.089Z,0.50
2023-02-03T10:08:48.422Z,1.00
2023-02-03T10:11:49.618Z,1.02
2023-02-03T10:14:51.436Z,1.08
2023-02-03T10:17:42.408Z,1.15
2023-02-03T10:20:36.952Z,0.57
2023-02-03T10:23:30.441Z,0.52
2023-02-03T10:26:21.628Z,0.77
2023-02-03T10:29:20.637Z,0.77
2023-02-03T10:32:12.389Z,0.90
2023-02-03T10:35:03.148Z,0.63
2023-02-03T10:37:53.173Z,0.68
2023-02-03T10:40:41.953Z,0.60
2023-02-03T10:43:51.658Z,1.40
2023-02-03T10:46:42.065Z,0.85
2023-02-03T10:49:32.381Z,1.40
2023-02-03T10:52:29.972Z,0.68
2023-02-03T10:55:32.645Z,1.00
2023-02-03T10:58:26.782Z,0.95
2023-02-03T11:01:17.077Z,1.20
2023-02-03T11:04:07.237Z,0.80
2023-02-03T11:06:58.677Z,0.70
2023-02-03T11:09:47.528Z,1.20
2023-02-03T11:12:36.595Z,0.80
2023-02-03T11:15:25.521Z,0.30
2023-02-03T11:18:38.300Z,0.65
2023-02-03T11:21:29.757Z,0.73
2023-02-03T11:24:23.700Z,0.50
2023-02-03T11:27:15.046Z,1.00
2023-02-03T11:30:16.663Z,0.50
2023-02-03T11:33:05.591Z,0.77
2023-02-03T11:35:57.821Z,0.70
2023-02-03T11:38:46.564Z,0.73
2023-02-03T11:41:38.837Z,0.82
2023-02-03T11:44:31.383Z,0.95
2023-02-03T11:47:23.655Z,0.70
2023-02-03T11:50:23.131Z,0.60
2023-02-03T11:53:32.734Z,0.75
2023-02-03T11:56:29.152Z,0.50
2023-02-03T11:59:42.759Z,0.40
2023-02-03T12:02:53.636Z,0.60
2023-02-03T12:05:55.730Z,0.35
2023-02-03T12:08:57.456Z,0.30
2023-02-03T12:11:59.262Z,0.40
2023-02-03T12:14:57.454Z,0.57
2023-02-03T12:17:54.178Z,0.20
2023-02-03T12:20:56.037Z,0.50
2023-02-03T12:23:51.619Z,0.77
2023-02-03T12:26:44.935Z,0.57
2023-02-03T12:29:38.562Z,0.30
2023-02-03T12:32:34.147Z,0.32
2023-02-03T12:35:25.862Z,0.40
2023-02-03T12:38:18.621Z,0.40
2023-02-03T12:41:10.624Z,0.45
2023-02-03T12:44:02.693Z,0.20
2023-02-03T12:46:54.971Z,0.47
2023-02-03T12:49:47.905Z,0.20
2023-02-03T12:52:40.149Z,0.45
2023-02-03T12:55:32.914Z,0.20
2023-02-03T12:58:24.922Z,0.20
2023-02-03T13:01:18.044Z,0.20
2023-02-03T13:04:10.742Z,0.38
2023-02-03T13:07:06.254Z,0.25
2023-02-03T13:10:00.516Z,0.30
2023-02-03T13:12:52.036Z,0.10
2023-02-03T13:15:44.876Z,0.10
2023-02-03T13:18:36.143Z,0.25
2023-02-03T13:21:24.832Z,0.28
2023-02-03T13:24:14.894Z,0.20
2023-02-03T13:27:14.288Z,0.10
2023-02-03T13:30:13.466Z,0.10
2023-02-03T13:33:25.747Z,0.30
2023-02-03T13:36:29.690Z,0.20
2023-02-03T13:39:48.549Z,0.32
2023-02-03T13:42:39.435Z,0.20
2023-02-03T13:45:30.556Z,0.10
2023-02-03T13:48:22.156Z,0.20
2023-02-03T13:51:17.384Z,0.28
2023-02-03T13:54:08.415Z,0.17
2023-02-03T13:57:02.284Z,0.20
2023-02-03T13:59:51.088Z,0.15
2023-02-03T14:02:45.323Z,0.10
2023-02-03T14:05:42.965Z,0.60
2023-02-03T14:08:55.362Z,0.17
2023-02-03T14:11:46.865Z,0.20
2023-02-03T14:15:05.821Z,0.25
2023-02-03T14:18:02.217Z,0.10
2023-02-03T14:20:57.091Z,0.20
2023-02-03T14:23:59.543Z,1.25
2023-02-03T14:26:49.542Z,0.50
2023-02-03T14:29:38.535Z,0.20
2023-02-03T14:32:51.914Z,0.47
2023-02-03T14:35:42.388Z,0.45
2023-02-03T14:38:33.516Z,0.47
2023-02-03T14:41:26.476Z,0.80
2023-02-03T14:44:25.037Z,0.38
2023-02-03T14:47:20.884Z,0.73
2023-02-03T14:50:23.683Z,0.77
2023-02-03T14:53:23.851Z,0.73
2023-02-03T14:56:21.906Z,0.73
2023-02-03T14:59:12.539Z,0.88
2023-02-03T15:02:14.963Z,0.65
2023-02-03T15:05:40.495Z,1.02
2023-02-03T15:08:44.435Z,0.65
2023-02-03T15:11:34.574Z,0.85
2023-02-03T15:14:25.715Z,0.50
2023-02-03T15:17:20.299Z,0.70
2023-02-03T15:20:43.370Z,0.70
2023-02-03T15:23:42.090Z,0.95
2023-02-03T15:26:32.422Z,0.65
2023-02-03T15:29:24.761Z,0.80
2023-02-03T15:32:18.062Z,0.80
2023-02-03T15:35:08.759Z,0.70
2023-02-03T15:38:00.799Z,0.60
2023-02-03T15:40:54.590Z,1.00
2023-02-03T15:43:45.473Z,1.35
2023-02-03T15:46:37.643Z,1.00
2023-02-03T15:49:29.505Z,0.80
2023-02-03T15:52:19.197Z,0.80
2023-02-03T15:55:17.909Z,1.00
2023-02-03T15:58:08.322Z,1.13
2023-02-03T16:00:58.497Z,1.33
2023-02-03T16:03:49.326Z,1.20
2023-02-03T16:06:40.855Z,1.05
2023-02-03T16:09:32.063Z,1.35
2023-02-03T16:12:24.812Z,1.00
2023-02-03T16:15:24.865Z,0.77
2023-02-03T16:18:18.608Z,1.23
2023-02-03T16:21:07.478Z,1.15
2023-02-03T16:23:56.060Z,0.65
2023-02-03T16:26:44.653Z,1.00
2023-02-03T16:29:55.209Z,0.70
2023-02-03T16:33:02.718Z,1.02
2023-02-03T16:36:08.991Z,1.27
2023-02-03T16:39:15.627Z,0.90
2023-02-03T16:42:32.172Z,0.82
2023-02-03T16:45:38.332Z,1.17
2023-02-03T16:48:46.266Z,1.13
2023-02-03T16:51:39.912Z,1.00
2023-02-03T16:54:29.055Z,1.30
2023-02-03T16:57:17.728Z,0.90
2023-02-03T17:00:08.670Z,1.25
2023-02-03T17:02:58.697Z,1.27
2023-02-03T17:05:49.999Z,1.00
2023-02-03T17:08:41.666Z,1.27
2023-02-03T17:11:30.251Z,0.80
2023-02-03T17:14:18.901Z,1.08
2023-02-03T17:17:07.939Z,1.13
2023-02-03T17:19:57.038Z,0.98
2023-02-03T17:22:47.030Z,1.50
2023-02-03T17:25:36.993Z,1.48
2023-02-03T17:28:25.794Z,2.13
2023-02-03T17:31:16.367Z,1.50
2023-02-03T17:34:05.157Z,1.30
2023-02-03T17:36:56.419Z,1.13
2023-02-03T17:55:20.246Z,1.73
2023-02-03T17:58:08.848Z,1.08
2023-02-03T18:00:57.550Z,1.25
2023-02-03T18:03:47.057Z,5.53
2023-02-03T18:06:36.045Z,1.92
2023-02-03T18:09:24.673Z,1.50
2023-02-03T18:12:14.660Z,1.08
2023-02-03T18:15:03.254Z,1.38
2023-02-03T18:17:51.972Z,1.05
2023-02-03T18:20:40.652Z,1.00
2023-02-03T18:23:30.847Z,1.00
2023-02-03T18:26:20.988Z,0.60
2023-02-03T18:29:12.840Z,1.00
2023-02-03T18:32:01.393Z,1.00
2023-02-03T18:34:50.154Z,1.10
2023-02-03T18:37:52.789Z,0.70
2023-02-03T18:40:41.437Z,0.60
2023-02-03T18:43:30.216Z,0.65
2023-02-03T18:46:21.586Z,0.82
2023-02-03T18:49:10.471Z,0.75
2023-02-03T18:51:59.087Z,0.77
2023-02-03T18:54:47.721Z,0.82
2023-02-03T18:57:36.391Z,0.88
2023-02-03T19:00:26.433Z,0.57
2023-02-03T19:03:16.392Z,0.75
2023-02-03T19:06:11.225Z,0.57
2023-02-03T19:09:00.843Z,0.47
2023-02-03T19:11:49.667Z,0.50
2023-02-03T19:14:38.330Z,0.90
2023-02-03T19:17:26.963Z,0.47
2023-02-03T19:20:17.609Z,0.38
2023-02-03T19:23:08.537Z,0.45
2023-02-03T19:25:57.117Z,0.40
2023-02-03T19:28:45.798Z,0.52
2023-02-03T19:31:35.643Z,0.63
2023-02-03T19:34:24.344Z,0.70
2023-02-03T19:37:14.545Z,0.55
2023-02-03T19:40:03.128Z,0.68
2023-02-03T19:42:51.799Z,0.70
2023-02-03T19:45:40.504Z,0.63
2023-02-03T19:48:29.147Z,0.40
2023-02-03T19:51:17.717Z,1.05
2023-02-03T19:54:08.070Z,0.50
2023-02-03T19:56:56.682Z,0.82
2023-02-03T19:59:45.250Z,1.40
2023-02-03T20:02:33.823Z,0.85
2023-02-03T20:05:22.656Z,0.80
2023-02-03T20:08:14.349Z,1.10
2023-02-03T20:11:04.453Z,1.25
2023-02-03T20:13:53.199Z,1.40
2023-02-03T20:16:42.785Z,1.05
2023-02-03T20:19:31.417Z,1.30
2023-02-03T20:22:20.217Z,1.58
2023-02-03T20:25:09.128Z,1.13
2023-02-03T20:28:02.510Z,1.45
2023-02-03T20:30:52.317Z,1.30
2023-02-03T20:33:41.155Z,1.60
2023-02-03T20:36:29.692Z,1.83
2023-02-03T20:39:20.385Z,0.65
2023-02-03T20:42:16.276Z,1.40
2023-02-03T20:45:14.292Z,1.20
2023-02-03T20:48:02.895Z,1.75
2023-02-03T20:50:51.638Z,1.17
2023-02-03T20:53:40.495Z,1.25
2023-02-03T20:56:29.227Z,0.70
2023-02-03T20:59:19.642Z,0.95
2023-02-03T21:02:18.215Z,0.93
2023-02-03T21:05:23.999Z,1.10
2023-02-03T21:08:14.124Z,1.45
2023-02-03T21:11:02.666Z,1.60
2023-02-03T21:13:51.340Z,1.05
2023-02-03T21:16:39.983Z,1.13
2023-02-03T21:19:32.305Z,1.42
2023-02-03T21:22:23.855Z,1.20
2023-02-03T21:25:27.238Z,1.40
2023-02-03T21:28:23.207Z,1.42
2023-02-03T21:31:20.604Z,1.33
2023-02-03T21:34:21.889Z,0.98
2023-02-03T21:37:40.103Z,1.08
2023-02-03T21:40:30.900Z,1.20
2023-02-03T21:43:19.972Z,1.23
2023-02-03T21:46:17.449Z,1.00
2023-02-03T21:49:06.433Z,1.17
2023-02-03T21:51:55.051Z,1.30
2023-02-03T21:54:45.042Z,1.20
2023-02-03T21:57:33.703Z,1.15
2023-02-03T22:00:42.860Z,0.85
2023-02-03T22:03:32.907Z,1.52
2023-02-03T22:06:24.454Z,1.40
2023-02-03T22:09:13.956Z,1.05
2023-02-03T22:12:03.976Z,1.08
2023-02-03T22:14:52.646Z,1.38
2023-02-03T22:17:41.235Z,0.80
2023-02-03T22:20:29.964Z,1.17
2023-02-03T22:23:19.379Z,1.13
2023-02-03T22:26:08.589Z,0.95
2023-02-03T22:28:58.706Z,1.27
2023-02-03T22:31:47.313Z,1.05
2023-02-03T22:34:36.011Z,1.05
2023-02-03T22:37:24.607Z,1.05
2023-02-03T22:40:13.768Z,0.82
2023-02-03T22:43:03.045Z,0.70
2023-02-03T22:45:53.255Z,0.45
2023-02-03T22:48:41.854Z,0.95
2023-02-03T22:51:30.412Z,0.73
2023-02-03T22:54:19.011Z,0.65
2023-02-03T22:57:07.587Z,1.23
2023-02-03T22:59:56.145Z,0.90
2023-02-03T23:02:46.170Z,1.70
2023-02-03T23:05:34.820Z,1.25
2023-02-03T23:08:23.371Z,0.50
2023-02-03T23:11:11.965Z,0.75
2023-02-03T23:14:00.587Z,0.95
2023-02-03T23:16:49.194Z,1.27
2023-02-03T23:19:39.351Z,0.85
2023-02-03T23:22:28.494Z,1.02
2023-02-03T23:25:17.112Z,0.60
2023-02-03T23:28:07.793Z,0.70
2023-02-03T23:30:56.908Z,0.82
2023-02-03T23:34:05.989Z,0.30
2023-02-03T23:36:54.930Z,0.68
2023-02-03T23:39:43.495Z,0.70
2023-02-03T23:42:32.105Z,0.70
2023-02-03T23:45:20.952Z,0.70
2023-02-03T23:48:09.996Z,1.27
2023-02-03T23:50:58.595Z,0.50
2023-02-03T23:53:48.710Z,0.57
2023-02-03T23:56:37.322Z,0.45
2023-02-03T23:59:26.009Z,0.50
